Burrton, Kansas
Current Conditions -  °F | °C
As of 1:52 PM on Wednesday 28 Jan 2015 (Local Time) from KHUT Reporting Station
Clear Clear  
Wind Chill: 68°   Ceiling: Unl
Heat Index: 68°   Visibility: 10mi
Dew Point: 34°   Wind: 14mph
Humidity: 28%   Direction: 270°W
Pressure: 29.79"   Gusts: NA
Location:  38.02°N, 97.67°W
Report Text: KHUT 281952Z 27012KT 10SM CLR 20/01 A2979 RMK AO2 SLP078 T02000011 $
Loading
Personal Weather Stations






























Interactive Weather Map New forecast layout! Learn more

10-Day Weather Forecast

Advertisements
Track Severe Weather on mobile